sensor_id;sensor_type;location;lat;lon;timestamp;pressure;altitude;pressure_sealevel;temperature;humidity
73594;BME280;64760;53.404;23.498;2023-01-08T00:01:36;62734.66;;;-142.90;100.00
73594;BME280;64760;53.404;23.498;2023-01-08T00:04:02;62734.66;;;-142.90;100.00
73594;BME280;64760;53.404;23.498;2023-01-08T00:06:29;62734.66;;;-142.90;100.00
73594;BME280;64760;53.404;23.498;2023-01-08T00:08:56;62734.66;;;-142.90;100.00
73594;BME280;64760;53.404;23.498;2023-01-08T00:11:22;62734.66;;;-142.90;100.00
73594;BME280;64760;53.404;23.498;2023-01-08T00:13:49;62734.66;;;-142.90;100.00
73594;BME280;64760;53.404;23.498;2023-01-08T00:16:17;62734.66;;;-142.90;100.00
73594;BME280;64760;53.404;23.498;2023-01-08T00:18:45;62734.66;;;-142.90;100.00
73594;BME280;64760;53.404;23.498;2023-01-08T00:21:13;62734.66;;;-142.90;100.00
73594;BME280;64760;53.404;23.498;2023-01-08T00:23:39;62734.66;;;-142.90;100.00
73594;BME280;64760;53.404;23.498;2023-01-08T00:26:08;62734.66;;;-142.90;100.00
73594;BME280;64760;53.404;23.498;2023-01-08T00:28:37;62734.66;;;-142.90;100.00
73594;BME280;64760;53.404;23.498;2023-01-08T00:31:05;62734.66;;;-142.90;100.00
73594;BME280;64760;53.404;23.498;2023-01-08T00:33:32;62734.66;;;-142.90;100.00
73594;BME280;64760;53.404;23.498;2023-01-08T00:36:06;62734.66;;;-142.90;100.00
73594;BME280;64760;53.404;23.498;2023-01-08T00:38:33;62734.66;;;-142.90;100.00
73594;BME280;64760;53.404;23.498;2023-01-08T00:41:00;62734.66;;;-142.90;100.00
73594;BME280;64760;53.404;23.498;2023-01-08T00:43:26;62734.66;;;-142.90;100.00
73594;BME280;64760;53.404;23.498;2023-01-08T00:45:53;62734.66;;;-142.90;100.00
73594;BME280;64760;53.404;23.498;2023-01-08T00:48:21;62734.66;;;-142.90;100.00
73594;BME280;64760;53.404;23.498;2023-01-08T00:50:48;62734.66;;;-142.90;100.00
73594;BME280;64760;53.404;23.498;2023-01-08T00:53:15;62734.66;;;-142.90;100.00
73594;BME280;64760;53.404;23.498;2023-01-08T00:55:41;62734.66;;;-142.90;100.00
73594;BME280;64760;53.404;23.498;2023-01-08T00:58:07;62734.66;;;-142.90;100.00
73594;BME280;64760;53.404;23.498;2023-01-08T01:00:34;62734.66;;;-142.90;100.00
73594;BME280;64760;53.404;23.498;2023-01-08T01:06:30;62734.66;;;-142.90;100.00
73594;BME280;64760;53.404;23.498;2023-01-08T01:09:01;62734.66;;;-142.90;100.00
73594;BME280;64760;53.404;23.498;2023-01-08T01:11:32;62734.66;;;-142.90;100.00
73594;BME280;64760;53.404;23.498;2023-01-08T01:13:59;62734.66;;;-142.90;100.00
73594;BME280;64760;53.404;23.498;2023-01-08T01:16:25;62734.66;;;-142.90;100.00
73594;BME280;64760;53.404;23.498;2023-01-08T01:18:54;62734.66;;;-142.90;100.00
73594;BME280;64760;53.404;23.498;2023-01-08T01:21:27;62734.66;;;-142.90;100.00
73594;BME280;64760;53.404;23.498;2023-01-08T01:23:56;62734.66;;;-142.90;100.00
73594;BME280;64760;53.404;23.498;2023-01-08T01:26:23;62734.66;;;-142.90;100.00
73594;BME280;64760;53.404;23.498;2023-01-08T01:28:51;62734.66;;;-142.90;100.00
73594;BME280;64760;53.404;23.498;2023-01-08T01:31:18;62734.66;;;-142.90;100.00
73594;BME280;64760;53.404;23.498;2023-01-08T01:33:45;62734.66;;;-142.90;100.00
73594;BME280;64760;53.404;23.498;2023-01-08T01:36:14;62734.66;;;-142.90;100.00
73594;BME280;64760;53.404;23.498;2023-01-08T01:38:45;62734.66;;;-142.90;100.00
73594;BME280;64760;53.404;23.498;2023-01-08T01:43:54;62734.66;;;-142.90;100.00
73594;BME280;64760;53.404;23.498;2023-01-08T01:46:36;62734.66;;;-142.90;100.00
73594;BME280;64760;53.404;23.498;2023-01-08T01:49:09;62734.66;;;-142.90;100.00
73594;BME280;64760;53.404;23.498;2023-01-08T01:51:38;62734.66;;;-142.90;100.00
73594;BME280;64760;53.404;23.498;2023-01-08T01:54:10;62734.66;;;-142.90;100.00
73594;BME280;64760;53.404;23.498;2023-01-08T01:56:38;62734.66;;;-142.90;100.00
73594;BME280;64760;53.404;23.498;2023-01-08T01:59:04;62734.66;;;-142.90;100.00
73594;BME280;64760;53.404;23.498;2023-01-08T02:01:31;62734.66;;;-142.90;100.00
73594;BME280;64760;53.404;23.498;2023-01-08T02:03:59;62734.66;;;-142.90;100.00
73594;BME280;64760;53.404;23.498;2023-01-08T02:06:38;62734.66;;;-142.90;100.00
73594;BME280;64760;53.404;23.498;2023-01-08T02:12:04;62734.66;;;-142.90;100.00
73594;BME280;64760;53.404;23.498;2023-01-08T02:14:45;62734.66;;;-142.90;100.00
73594;BME280;64760;53.404;23.498;2023-01-08T02:17:23;62734.66;;;-142.90;100.00
73594;BME280;64760;53.404;23.498;2023-01-08T02:28:01;62734.66;;;-142.90;100.00
73594;BME280;64760;53.404;23.498;2023-01-08T02:30:30;62734.66;;;-142.90;100.00
73594;BME280;64760;53.404;23.498;2023-01-08T02:32:57;62734.66;;;-142.90;100.00
73594;BME280;64760;53.404;23.498;2023-01-08T02:35:33;62734.66;;;-142.90;100.00
73594;BME280;64760;53.404;23.498;2023-01-08T02:38:03;62734.66;;;-142.90;100.00
73594;BME280;64760;53.404;23.498;2023-01-08T02:40:41;62734.66;;;-142.90;100.00
73594;BME280;64760;53.404;23.498;2023-01-08T02:43:25;62734.66;;;-142.90;100.00
73594;BME280;64760;53.404;23.498;2023-01-08T02:46:00;62734.66;;;-142.90;100.00
73594;BME280;64760;53.404;23.498;2023-01-08T02:51:30;62734.66;;;-142.90;100.00
73594;BME280;64760;53.404;23.498;2023-01-08T02:54:02;62734.66;;;-142.90;100.00
73594;BME280;64760;53.404;23.498;2023-01-08T02:56:33;62734.66;;;-142.90;100.00
73594;BME280;64760;53.404;23.498;2023-01-08T02:59:02;62734.66;;;-142.90;100.00
73594;BME280;64760;53.404;23.498;2023-01-08T03:01:32;62734.66;;;-142.90;100.00
73594;BME280;64760;53.404;23.498;2023-01-08T03:04:03;62734.66;;;-142.90;100.00
73594;BME280;64760;53.404;23.498;2023-01-08T03:06:31;62734.66;;;-142.90;100.00
73594;BME280;64760;53.404;23.498;2023-01-08T03:08:58;62734.66;;;-142.90;100.00
73594;BME280;64760;53.404;23.498;2023-01-08T03:11:30;62734.66;;;-142.90;100.00
73594;BME280;64760;53.404;23.498;2023-01-08T03:14:11;62734.66;;;-142.90;100.00
73594;BME280;64760;53.404;23.498;2023-01-08T03:16:47;62734.66;;;-142.90;100.00
73594;BME280;64760;53.404;23.498;2023-01-08T03:21:42;62734.66;;;-142.90;100.00
73594;BME280;64760;53.404;23.498;2023-01-08T03:24:13;62734.66;;;-142.90;100.00
73594;BME280;64760;53.404;23.498;2023-01-08T03:26:41;62734.66;;;-142.90;100.00
73594;BME280;64760;53.404;23.498;2023-01-08T03:29:12;62734.66;;;-142.90;100.00
73594;BME280;64760;53.404;23.498;2023-01-08T03:31:42;62734.66;;;-142.90;100.00
73594;BME280;64760;53.404;23.498;2023-01-08T03:34:09;62734.66;;;-142.90;100.00
73594;BME280;64760;53.404;23.498;2023-01-08T03:36:37;62734.66;;;-142.90;100.00
73594;BME280;64760;53.404;23.498;2023-01-08T03:39:15;62734.66;;;-142.90;100.00
73594;BME280;64760;53.404;23.498;2023-01-08T03:41:42;62734.66;;;-142.90;100.00
73594;BME280;64760;53.404;23.498;2023-01-08T03:44:08;62734.66;;;-142.90;100.00
73594;BME280;64760;53.404;23.498;2023-01-08T03:46:41;62734.66;;;-142.90;100.00
73594;BME280;64760;53.404;23.498;2023-01-08T03:49:10;62734.66;;;-142.90;100.00
73594;BME280;64760;53.404;23.498;2023-01-08T03:51:42;62734.66;;;-142.90;100.00
73594;BME280;64760;53.404;23.498;2023-01-08T03:54:12;62734.66;;;-142.90;100.00
73594;BME280;64760;53.404;23.498;2023-01-08T03:56:43;62734.66;;;-142.90;100.00
73594;BME280;64760;53.404;23.498;2023-01-08T03:59:13;62734.66;;;-142.90;100.00
73594;BME280;64760;53.404;23.498;2023-01-08T04:01:40;62734.66;;;-142.90;100.00
73594;BME280;64760;53.404;23.498;2023-01-08T04:04:06;62734.66;;;-142.90;100.00
73594;BME280;64760;53.404;23.498;2023-01-08T04:06:33;62734.66;;;-142.90;100.00
73594;BME280;64760;53.404;23.498;2023-01-08T04:08:59;62734.66;;;-142.90;100.00
73594;BME280;64760;53.404;23.498;2023-01-08T04:11:26;62734.66;;;-142.90;100.00
73594;BME280;64760;53.404;23.498;2023-01-08T04:13:52;62734.66;;;-142.90;100.00
73594;BME280;64760;53.404;23.498;2023-01-08T04:16:21;62734.66;;;-142.90;100.00
73594;BME280;64760;53.404;23.498;2023-01-08T04:18:48;62734.66;;;-142.90;100.00
73594;BME280;64760;53.404;23.498;2023-01-08T04:21:14;62734.66;;;-142.90;100.00
73594;BME280;64760;53.404;23.498;2023-01-08T04:23:40;62734.66;;;-142.90;100.00
73594;BME280;64760;53.404;23.498;2023-01-08T04:26:07;62734.66;;;-142.90;100.00
73594;BME280;64760;53.404;23.498;2023-01-08T04:28:34;62734.66;;;-142.90;100.00
73594;BME280;64760;53.404;23.498;2023-01-08T04:31:08;62734.66;;;-142.90;100.00
73594;BME280;64760;53.404;23.498;2023-01-08T04:33:35;62734.66;;;-142.90;100.00
73594;BME280;64760;53.404;23.498;2023-01-08T04:36:03;62734.66;;;-142.90;100.00
73594;BME280;64760;53.404;23.498;2023-01-08T04:38:30;62734.66;;;-142.90;100.00
73594;BME280;64760;53.404;23.498;2023-01-08T04:40:57;62734.66;;;-142.90;100.00
73594;BME280;64760;53.404;23.498;2023-01-08T04:43:25;62734.66;;;-142.90;100.00
73594;BME280;64760;53.404;23.498;2023-01-08T04:45:52;62734.66;;;-142.90;100.00
73594;BME280;64760;53.404;23.498;2023-01-08T04:48:21;62734.66;;;-142.90;100.00
73594;BME280;64760;53.404;23.498;2023-01-08T04:50:49;62734.66;;;-142.90;100.00
73594;BME280;64760;53.404;23.498;2023-01-08T04:53:16;62734.66;;;-142.90;100.00
73594;BME280;64760;53.404;23.498;2023-01-08T04:55:42;62734.66;;;-142.90;100.00
73594;BME280;64760;53.404;23.498;2023-01-08T04:58:08;62734.66;;;-142.90;100.00
73594;BME280;64760;53.404;23.498;2023-01-08T05:00:35;62734.66;;;-142.90;100.00
73594;BME280;64760;53.404;23.498;2023-01-08T05:03:01;62734.66;;;-142.90;100.00
73594;BME280;64760;53.404;23.498;2023-01-08T05:05:27;62734.66;;;-142.90;100.00
73594;BME280;64760;53.404;23.498;2023-01-08T05:07:53;62734.66;;;-142.90;100.00
73594;BME280;64760;53.404;23.498;2023-01-08T05:10:21;62734.66;;;-142.90;100.00
73594;BME280;64760;53.404;23.498;2023-01-08T05:12:47;62734.66;;;-142.90;100.00
73594;BME280;64760;53.404;23.498;2023-01-08T05:15:13;62734.66;;;-142.90;100.00
73594;BME280;64760;53.404;23.498;2023-01-08T05:17:39;62734.66;;;-142.90;100.00
73594;BME280;64760;53.404;23.498;2023-01-08T05:20:06;62734.66;;;-142.90;100.00
73594;BME280;64760;53.404;23.498;2023-01-08T05:22:34;62734.66;;;-142.90;100.00
73594;BME280;64760;53.404;23.498;2023-01-08T05:25:00;62734.66;;;-142.90;100.00
73594;BME280;64760;53.404;23.498;2023-01-08T05:27:27;62734.66;;;-142.90;100.00
73594;BME280;64760;53.404;23.498;2023-01-08T05:29:53;62734.66;;;-142.90;100.00
73594;BME280;64760;53.404;23.498;2023-01-08T05:32:19;62734.66;;;-142.90;100.00
73594;BME280;64760;53.404;23.498;2023-01-08T05:34:46;62734.66;;;-142.90;100.00
73594;BME280;64760;53.404;23.498;2023-01-08T05:37:12;62734.66;;;-142.90;100.00
73594;BME280;64760;53.404;23.498;2023-01-08T05:39:38;62734.66;;;-142.90;100.00
73594;BME280;64760;53.404;23.498;2023-01-08T05:42:04;62734.66;;;-142.90;100.00
73594;BME280;64760;53.404;23.498;2023-01-08T05:44:31;62734.66;;;-142.90;100.00
73594;BME280;64760;53.404;23.498;2023-01-08T05:46:58;62734.66;;;-142.90;100.00
73594;BME280;64760;53.404;23.498;2023-01-08T05:49:24;62734.66;;;-142.90;100.00
73594;BME280;64760;53.404;23.498;2023-01-08T05:51:50;62734.66;;;-142.90;100.00
73594;BME280;64760;53.404;23.498;2023-01-08T05:54:16;62734.66;;;-142.90;100.00
73594;BME280;64760;53.404;23.498;2023-01-08T05:56:42;62734.66;;;-142.90;100.00
73594;BME280;64760;53.404;23.498;2023-01-08T05:59:12;62734.66;;;-142.90;100.00
73594;BME280;64760;53.404;23.498;2023-01-08T06:01:38;62734.66;;;-142.90;100.00
73594;BME280;64760;53.404;23.498;2023-01-08T06:04:04;62734.66;;;-142.90;100.00
73594;BME280;64760;53.404;23.498;2023-01-08T06:06:30;62734.66;;;-142.90;100.00
73594;BME280;64760;53.404;23.498;2023-01-08T06:08:57;62734.66;;;-142.90;100.00
73594;BME280;64760;53.404;23.498;2023-01-08T06:11:23;62734.66;;;-142.90;100.00
73594;BME280;64760;53.404;23.498;2023-01-08T06:13:49;62734.66;;;-142.90;100.00
73594;BME280;64760;53.404;23.498;2023-01-08T06:16:15;62734.66;;;-142.90;100.00
73594;BME280;64760;53.404;23.498;2023-01-08T06:18:42;62734.66;;;-142.90;100.00
73594;BME280;64760;53.404;23.498;2023-01-08T06:21:08;62734.66;;;-142.90;100.00
73594;BME280;64760;53.404;23.498;2023-01-08T06:23:35;62734.66;;;-142.90;100.00
73594;BME280;64760;53.404;23.498;2023-01-08T06:26:02;62734.66;;;-142.90;100.00
73594;BME280;64760;53.404;23.498;2023-01-08T06:28:32;62734.66;;;-142.90;100.00
73594;BME280;64760;53.404;23.498;2023-01-08T06:30:59;62734.66;;;-142.90;100.00
73594;BME280;64760;53.404;23.498;2023-01-08T06:33:26;62734.66;;;-142.90;100.00
73594;BME280;64760;53.404;23.498;2023-01-08T06:35:52;62734.66;;;-142.90;100.00
73594;BME280;64760;53.404;23.498;2023-01-08T06:38:18;62734.66;;;-142.90;100.00
73594;BME280;64760;53.404;23.498;2023-01-08T06:40:45;62734.66;;;-142.90;100.00
73594;BME280;64760;53.404;23.498;2023-01-08T06:43:13;62734.66;;;-142.90;100.00
73594;BME280;64760;53.404;23.498;2023-01-08T06:45:39;62734.66;;;-142.90;100.00
73594;BME280;64760;53.404;23.498;2023-01-08T06:48:06;62734.66;;;-142.90;100.00
73594;BME280;64760;53.404;23.498;2023-01-08T06:50:33;62734.66;;;-142.90;100.00
73594;BME280;64760;53.404;23.498;2023-01-08T06:53:00;62734.66;;;-142.90;100.00
73594;BME280;64760;53.404;23.498;2023-01-08T06:55:26;62734.66;;;-142.90;100.00
73594;BME280;64760;53.404;23.498;2023-01-08T06:57:57;62734.66;;;-142.90;100.00
73594;BME280;64760;53.404;23.498;2023-01-08T07:00:24;62734.66;;;-142.90;100.00
73594;BME280;64760;53.404;23.498;2023-01-08T07:02:52;62734.66;;;-142.90;100.00
73594;BME280;64760;53.404;23.498;2023-01-08T07:05:19;62734.66;;;-142.90;100.00
73594;BME280;64760;53.404;23.498;2023-01-08T07:07:45;62734.66;;;-142.90;100.00
73594;BME280;64760;53.404;23.498;2023-01-08T07:10:11;62734.66;;;-142.90;100.00
73594;BME280;64760;53.404;23.498;2023-01-08T07:12:38;62734.66;;;-142.90;100.00
73594;BME280;64760;53.404;23.498;2023-01-08T07:15:04;62734.66;;;-142.90;100.00
73594;BME280;64760;53.404;23.498;2023-01-08T07:17:32;62734.66;;;-142.90;100.00
73594;BME280;64760;53.404;23.498;2023-01-08T07:19:58;62734.66;;;-142.90;100.00
73594;BME280;64760;53.404;23.498;2023-01-08T07:22:24;62734.66;;;-142.90;100.00
73594;BME280;64760;53.404;23.498;2023-01-08T07:24:51;62734.66;;;-142.90;100.00
73594;BME280;64760;53.404;23.498;2023-01-08T07:27:42;62734.66;;;-142.90;100.00
73594;BME280;64760;53.404;23.498;2023-01-08T07:30:08;62734.66;;;-142.90;100.00
73594;BME280;64760;53.404;23.498;2023-01-08T07:32:35;62734.66;;;-142.90;100.00
73594;BME280;64760;53.404;23.498;2023-01-08T07:35:02;62734.66;;;-142.90;100.00
73594;BME280;64760;53.404;23.498;2023-01-08T07:37:28;62734.66;;;-142.90;100.00
73594;BME280;64760;53.404;23.498;2023-01-08T07:39:54;62734.66;;;-142.90;100.00
73594;BME280;64760;53.404;23.498;2023-01-08T07:42:21;62734.66;;;-142.90;100.00
73594;BME280;64760;53.404;23.498;2023-01-08T07:44:47;62734.66;;;-142.90;100.00
73594;BME280;64760;53.404;23.498;2023-01-08T07:47:13;62734.66;;;-142.90;100.00
73594;BME280;64760;53.404;23.498;2023-01-08T07:49:39;62734.66;;;-142.90;100.00
73594;BME280;64760;53.404;23.498;2023-01-08T07:52:06;62734.66;;;-142.90;100.00
73594;BME280;64760;53.404;23.498;2023-01-08T07:54:32;62734.66;;;-142.90;100.00
73594;BME280;64760;53.404;23.498;2023-01-08T07:56:58;62734.66;;;-142.90;100.00
73594;BME280;64760;53.404;23.498;2023-01-08T07:59:24;62734.66;;;-142.90;100.00
73594;BME280;64760;53.404;23.498;2023-01-08T08:01:51;62734.66;;;-142.90;100.00
73594;BME280;64760;53.404;23.498;2023-01-08T08:04:17;62734.66;;;-142.90;100.00
73594;BME280;64760;53.404;23.498;2023-01-08T08:06:44;62734.66;;;-142.90;100.00
73594;BME280;64760;53.404;23.498;2023-01-08T08:09:10;62734.66;;;-142.90;100.00
73594;BME280;64760;53.404;23.498;2023-01-08T08:11:36;62734.66;;;-142.90;100.00
73594;BME280;64760;53.404;23.498;2023-01-08T08:14:03;62734.66;;;-142.90;100.00
73594;BME280;64760;53.404;23.498;2023-01-08T08:16:30;62734.66;;;-142.90;100.00
73594;BME280;64760;53.404;23.498;2023-01-08T08:18:57;62734.66;;;-142.90;100.00
73594;BME280;64760;53.404;23.498;2023-01-08T08:21:24;62734.66;;;-142.90;100.00
73594;BME280;64760;53.404;23.498;2023-01-08T08:23:50;62734.66;;;-142.90;100.00
73594;BME280;64760;53.404;23.498;2023-01-08T08:26:17;62734.66;;;-142.90;100.00
73594;BME280;64760;53.404;23.498;2023-01-08T08:28:43;62734.66;;;-142.90;100.00
73594;BME280;64760;53.404;23.498;2023-01-08T08:31:09;62734.66;;;-142.90;100.00
73594;BME280;64760;53.404;23.498;2023-01-08T08:33:36;62734.66;;;-142.90;100.00
73594;BME280;64760;53.404;23.498;2023-01-08T08:36:03;62734.66;;;-142.90;100.00
73594;BME280;64760;53.404;23.498;2023-01-08T08:38:29;62734.66;;;-142.90;100.00
73594;BME280;64760;53.404;23.498;2023-01-08T08:40:56;62734.66;;;-142.90;100.00
73594;BME280;64760;53.404;23.498;2023-01-08T08:43:22;62734.66;;;-142.90;100.00
73594;BME280;64760;53.404;23.498;2023-01-08T08:45:48;62734.66;;;-142.90;100.00
73594;BME280;64760;53.404;23.498;2023-01-08T08:48:14;62734.66;;;-142.90;100.00
73594;BME280;64760;53.404;23.498;2023-01-08T08:50:43;62734.66;;;-142.90;100.00
73594;BME280;64760;53.404;23.498;2023-01-08T08:53:09;62734.66;;;-142.90;100.00
73594;BME280;64760;53.404;23.498;2023-01-08T08:55:35;62734.66;;;-142.90;100.00
73594;BME280;64760;53.404;23.498;2023-01-08T08:58:04;62734.66;;;-142.90;100.00
73594;BME280;64760;53.404;23.498;2023-01-08T09:00:31;62734.66;;;-142.90;100.00
73594;BME280;64760;53.404;23.498;2023-01-08T09:03:12;62734.66;;;-142.90;100.00
73594;BME280;64760;53.404;23.498;2023-01-08T09:05:39;62734.66;;;-142.90;100.00
73594;BME280;64760;53.404;23.498;2023-01-08T09:08:09;62734.66;;;-142.90;100.00
73594;BME280;64760;53.404;23.498;2023-01-08T09:10:36;62734.66;;;-142.90;100.00
73594;BME280;64760;53.404;23.498;2023-01-08T09:13:03;62734.66;;;-142.90;100.00
73594;BME280;64760;53.404;23.498;2023-01-08T09:15:29;62734.66;;;-142.90;100.00
73594;BME280;64760;53.404;23.498;2023-01-08T09:17:56;62734.66;;;-142.90;100.00
73594;BME280;64760;53.404;23.498;2023-01-08T09:20:24;62734.66;;;-142.90;100.00
73594;BME280;64760;53.404;23.498;2023-01-08T09:22:51;62734.66;;;-142.90;100.00
73594;BME280;64760;53.404;23.498;2023-01-08T09:25:17;62734.66;;;-142.90;100.00
73594;BME280;64760;53.404;23.498;2023-01-08T09:27:44;62734.66;;;-142.90;100.00
73594;BME280;64760;53.404;23.498;2023-01-08T09:30:11;62734.66;;;-142.90;100.00
73594;BME280;64760;53.404;23.498;2023-01-08T09:32:37;62734.66;;;-142.90;100.00
73594;BME280;64760;53.404;23.498;2023-01-08T09:35:04;62734.66;;;-142.90;100.00
73594;BME280;64760;53.404;23.498;2023-01-08T09:37:31;62734.66;;;-142.90;100.00
73594;BME280;64760;53.404;23.498;2023-01-08T09:39:58;62734.66;;;-142.90;100.00
73594;BME280;64760;53.404;23.498;2023-01-08T09:42:26;62734.66;;;-142.90;100.00
73594;BME280;64760;53.404;23.498;2023-01-08T09:44:56;62734.66;;;-142.90;100.00
73594;BME280;64760;53.404;23.498;2023-01-08T09:47:25;62734.66;;;-142.90;100.00
73594;BME280;64760;53.404;23.498;2023-01-08T09:49:56;62734.66;;;-142.90;100.00
73594;BME280;64760;53.404;23.498;2023-01-08T09:52:23;62734.66;;;-142.90;100.00
73594;BME280;64760;53.404;23.498;2023-01-08T09:54:51;62734.66;;;-142.90;100.00
73594;BME280;64760;53.404;23.498;2023-01-08T09:57:20;62734.66;;;-142.90;100.00
73594;BME280;64760;53.404;23.498;2023-01-08T09:59:47;62734.66;;;-142.90;100.00
73594;BME280;64760;53.404;23.498;2023-01-08T10:02:19;62734.66;;;-142.90;100.00
73594;BME280;64760;53.404;23.498;2023-01-08T10:04:53;62734.66;;;-142.90;100.00
73594;BME280;64760;53.404;23.498;2023-01-08T10:07:24;62734.66;;;-142.90;100.00
73594;BME280;64760;53.404;23.498;2023-01-08T10:09:53;62734.66;;;-142.90;100.00
73594;BME280;64760;53.404;23.498;2023-01-08T10:12:29;62734.66;;;-142.90;100.00
73594;BME280;64760;53.404;23.498;2023-01-08T10:15:07;62734.66;;;-142.90;100.00
73594;BME280;64760;53.404;23.498;2023-01-08T10:17:41;62734.66;;;-142.90;100.00
73594;BME280;64760;53.404;23.498;2023-01-08T10:20:15;62734.66;;;-142.90;100.00
73594;BME280;64760;53.404;23.498;2023-01-08T10:22:42;62734.66;;;-142.90;100.00
73594;BME280;64760;53.404;23.498;2023-01-08T10:25:11;62734.66;;;-142.90;100.00
73594;BME280;64760;53.404;23.498;2023-01-08T10:27:51;62734.66;;;-142.90;100.00
73594;BME280;64760;53.404;23.498;2023-01-08T10:30:32;62734.66;;;-142.90;100.00
73594;BME280;64760;53.404;23.498;2023-01-08T10:33:03;62734.66;;;-142.90;100.00
73594;BME280;64760;53.404;23.498;2023-01-08T10:35:38;62734.66;;;-142.90;100.00
73594;BME280;64760;53.404;23.498;2023-01-08T10:38:05;62734.66;;;-142.90;100.00
73594;BME280;64760;53.404;23.498;2023-01-08T10:40:39;62734.66;;;-142.90;100.00
73594;BME280;64760;53.404;23.498;2023-01-08T10:43:12;62734.66;;;-142.90;100.00
73594;BME280;64760;53.404;23.498;2023-01-08T10:46:01;62734.66;;;-142.90;100.00
73594;BME280;64760;53.404;23.498;2023-01-08T10:48:32;62734.66;;;-142.90;100.00
73594;BME280;64760;53.404;23.498;2023-01-08T10:51:04;62734.66;;;-142.90;100.00
73594;BME280;64760;53.404;23.498;2023-01-08T10:53:31;62734.66;;;-142.90;100.00
73594;BME280;64760;53.404;23.498;2023-01-08T10:56:00;62734.66;;;-142.90;100.00
73594;BME280;64760;53.404;23.498;2023-01-08T10:58:28;62734.66;;;-142.90;100.00
73594;BME280;64760;53.404;23.498;2023-01-08T11:01:11;62734.66;;;-142.90;100.00
73594;BME280;64760;53.404;23.498;2023-01-08T11:03:39;62734.66;;;-142.90;100.00
73594;BME280;64760;53.404;23.498;2023-01-08T11:06:13;62734.66;;;-142.90;100.00
73594;BME280;64760;53.404;23.498;2023-01-08T11:08:56;62734.66;;;-142.90;100.00
73594;BME280;64760;53.404;23.498;2023-01-08T11:11:23;62734.66;;;-142.90;100.00
73594;BME280;64760;53.404;23.498;2023-01-08T11:13:59;62734.66;;;-142.90;100.00
73594;BME280;64760;53.404;23.498;2023-01-08T11:16:39;62734.66;;;-142.90;100.00
73594;BME280;64760;53.404;23.498;2023-01-08T11:19:18;62734.66;;;-142.90;100.00
73594;BME280;64760;53.404;23.498;2023-01-08T11:27:58;62734.66;;;-142.90;100.00
73594;BME280;64760;53.404;23.498;2023-01-08T11:30:28;62734.66;;;-142.90;100.00
73594;BME280;64760;53.404;23.498;2023-01-08T11:33:06;62734.66;;;-142.90;100.00
73594;BME280;64760;53.404;23.498;2023-01-08T11:35:53;62734.66;;;-142.90;100.00
73594;BME280;64760;53.404;23.498;2023-01-08T11:38:22;62734.66;;;-142.90;100.00
73594;BME280;64760;53.404;23.498;2023-01-08T11:41:23;62734.66;;;-142.90;100.00
73594;BME280;64760;53.404;23.498;2023-01-08T11:44:35;62734.66;;;-142.90;100.00
73594;BME280;64760;53.404;23.498;2023-01-08T11:50:24;62734.66;;;-142.90;100.00
73594;BME280;64760;53.404;23.498;2023-01-08T11:53:09;62734.66;;;-142.90;100.00
73594;BME280;64760;53.404;23.498;2023-01-08T12:12:02;62734.66;;;-142.90;100.00
73594;BME280;64760;53.404;23.498;2023-01-08T12:14:42;62734.66;;;-142.90;100.00
73594;BME280;64760;53.404;23.498;2023-01-08T22:04:08;99282.81;;;-1.44;95.46
73594;BME280;64760;53.404;23.498;2023-01-08T22:06:42;99278.78;;;-1.48;95.73
73594;BME280;64760;53.404;23.498;2023-01-08T22:09:14;99291.38;;;-1.42;95.57
73594;BME280;64760;53.404;23.498;2023-01-08T22:11:40;99282.31;;;-1.59;96.00
73594;BME280;64760;53.404;23.498;2023-01-08T22:14:07;99278.47;;;-1.55;96.16
73594;BME280;64760;53.404;23.498;2023-01-08T22:16:33;99275.44;;;-1.50;95.85
73594;BME280;64760;53.404;23.498;2023-01-08T22:18:59;99272.81;;;-1.50;95.79
73594;BME280;64760;53.404;23.498;2023-01-08T22:21:26;99270.94;;;-1.38;95.92
73594;BME280;64760;53.404;23.498;2023-01-08T22:23:54;99254.50;;;-1.31;95.28
73594;BME280;64760;53.404;23.498;2023-01-08T22:26:22;99253.69;;;-1.31;94.97
73594;BME280;64760;53.404;23.498;2023-01-08T22:28:48;99239.28;;;-1.27;94.84
73594;BME280;64760;53.404;23.498;2023-01-08T22:31:15;99243.06;;;-1.20;94.66
73594;BME280;64760;53.404;23.498;2023-01-08T22:33:42;99234.59;;;-1.24;94.86
73594;BME280;64760;53.404;23.498;2023-01-08T22:36:11;99240.44;;;-1.20;94.32
73594;BME280;64760;53.404;23.498;2023-01-08T22:38:38;99232.22;;;-1.36;94.69
73594;BME280;64760;53.404;23.498;2023-01-08T22:41:18;99233.44;;;-1.40;94.99
73594;BME280;64760;53.404;23.498;2023-01-08T22:43:45;99228.47;;;-1.44;95.23
73594;BME280;64760;53.404;23.498;2023-01-08T22:46:15;99219.88;;;-1.46;95.30
73594;BME280;64760;53.404;23.498;2023-01-08T22:48:42;99211.88;;;-1.34;95.39
73594;BME280;64760;53.404;23.498;2023-01-08T22:51:09;99221.31;;;-1.22;95.00
73594;BME280;64760;53.404;23.498;2023-01-08T22:53:36;99213.16;;;-1.29;94.95
73594;BME280;64760;53.404;23.498;2023-01-08T22:56:07;99210.50;;;-1.29;94.74
73594;BME280;64760;53.404;23.498;2023-01-08T22:58:40;99208.00;;;-1.30;95.09
73594;BME280;64760;53.404;23.498;2023-01-08T23:01:18;99212.88;;;-1.26;94.89
73594;BME280;64760;53.404;23.498;2023-01-08T23:03:50;99208.16;;;-1.22;94.90
73594;BME280;64760;53.404;23.498;2023-01-08T23:06:18;99216.59;;;-1.28;94.90
73594;BME280;64760;53.404;23.498;2023-01-08T23:08:46;99217.00;;;-1.33;94.82